Temp: 18.3°C   Baro: 1015.8mb
  Wind: 0.9mph   Dir: SW (235°)
  Rain: 0.6mm (0.0mm/hr)
  Solar: 608W/m2  Hum: 65%
 
Bath Spa Weather Station Historical Data
Daily Summary for August 05, 2020 Units:  Metric    English   Both
Daily Weekly Monthly Yearly Custom
  High: Low: Average:
Temperature: 19.9 °C 16.4 °C 17.8 °C
Dew Point: 16.2 °C 13.6 °C 15.3 °C
Humidity: 90% 77% 86%
Wind Speed: 20.3km/h 0.8km/h 8.5km/h
Wind Gust: 35.4km/h - -
Wind- - SW
Pressure: 1013.1 hPa 1010.7 hPa -
Precipitation: 0 mm    
Historical Graphs
 
 
Tabular Data for August 05, 2020
Time Temperature Dew Point Pressure Wind Wind Speed Wind Gust Humidity Rainfall Rate (Hourly) solar
00:04 16.4 °C 13.6 °C 1012.8 hPa SW 10.8 km/h 16.1 km/h 83% 0 mm 0 W/m2
00:09 16.5 °C 13.6 °C 1012.8 hPa SW 6.3 km/h 16.1 km/h 83% 0 mm 0 W/m2
00:13 16.4 °C 13.6 °C 1012.4 hPa SW 6.4 km/h 16.1 km/h 83% 0 mm 0 W/m2
00:19 16.5 °C 13.6 °C 1012.4 hPa SW 9.3 km/h 16.1 km/h 83% 0 mm 0 W/m2
00:24 16.5 °C 13.6 °C 1012.4 hPa SSW 6.8 km/h 16.1 km/h 83% 0 mm 0 W/m2
00:29 16.5 °C 13.6 °C 1012.4 hPa SSW 6.1 km/h 11.3 km/h 83% 0 mm 0 W/m2
00:34 16.5 °C 13.7 °C 1012.4 hPa SSW 5.8 km/h 11.3 km/h 83.2% 0 mm 0 W/m2
00:39 16.5 °C 13.8 °C 1012.1 hPa SSW 7.4 km/h 12.9 km/h 84% 0 mm 0 W/m2
00:44 16.5 °C 13.8 °C 1012.1 hPa SSW 8.4 km/h 19.3 km/h 84% 0 mm 0 W/m2
00:49 16.6 °C 13.8 °C 1012.1 hPa SSW 6.6 km/h 16.1 km/h 84% 0 mm 0 W/m2
00:54 16.6 °C 13.8 °C 1012.1 hPa SSW 4.7 km/h 14.5 km/h 84% 0 mm 0 W/m2
00:59 16.6 °C 13.8 °C 1012.1 hPa SSW 6.6 km/h 12.9 km/h 84% 0 mm 0 W/m2
01:04 16.6 °C 13.8 °C 1012.1 hPa SSW 5.1 km/h 12.9 km/h 84% 0 mm 0 W/m2
01:09 16.5 °C 13.8 °C 1012.1 hPa South 5.8 km/h 12.9 km/h 84% 0 mm 0 W/m2
01:14 16.5 °C 13.8 °C 1012.1 hPa SSW 7.6 km/h 12.9 km/h 84% 0 mm 0 W/m2
01:19 16.4 °C 13.8 °C 1012.1 hPa SSW 4.5 km/h 12.9 km/h 84% 0 mm 0 W/m2
01:24 16.5 °C 13.8 °C 1012.1 hPa SSW 3.2 km/h 8 km/h 84% 0 mm 0 W/m2
01:29 16.5 °C 13.8 °C 1012.1 hPa SW 5.1 km/h 8 km/h 84% 0 mm 0 W/m2
01:34 16.5 °C 13.8 °C 1012.1 hPa SSW 3.7 km/h 8 km/h 84% 0 mm 0 W/m2
01:39 16.5 °C 13.8 °C 1012.1 hPa West 4 km/h 11.3 km/h 84% 0 mm 0 W/m2
01:44 16.6 °C 13.9 °C 1012.1 hPa West 2.9 km/h 6.4 km/h 84% 0 mm 0 W/m2
01:49 16.6 °C 13.9 °C 1012.1 hPa West 1.3 km/h 4.8 km/h 84% 0 mm 0 W/m2
01:54 16.6 °C 13.9 °C 1012.1 hPa SW 4.5 km/h 8 km/h 84% 0 mm 0 W/m2
01:59 16.7 °C 13.9 °C 1011.7 hPa WSW 6 km/h 11.3 km/h 84% 0 mm 0 W/m2
02:04 16.7 °C 14 °C 1011.7 hPa WSW 8.4 km/h 12.9 km/h 84% 0 mm 0 W/m2
02:09 16.7 °C 14 °C 1011.7 hPa SSW 5.1 km/h 16.1 km/h 83.8% 0 mm 0 W/m2
02:14 16.8 °C 13.9 °C 1011.7 hPa SW 7.4 km/h 16.1 km/h 83% 0 mm 0 W/m2
02:19 16.8 °C 13.9 °C 1011.7 hPa SW 10.5 km/h 16.1 km/h 83% 0 mm 0 W/m2
02:24 16.9 °C 14 °C 1011.7 hPa SSW 7.7 km/h 16.1 km/h 83% 0 mm 0 W/m2
02:29 16.9 °C 14.1 °C 1011.7 hPa SW 9.7 km/h 19.3 km/h 83.4% 0 mm 0 W/m2
02:34 17 °C 14.3 °C 1011.7 hPa SW 5.8 km/h 19.3 km/h 84% 0 mm 0 W/m2
02:39 17.1 °C 14.3 °C 1011.7 hPa SW 5.1 km/h 12.9 km/h 84% 0 mm 0 W/m2
02:44 17 °C 14.3 °C 1011.7 hPa WSW 8.7 km/h 17.7 km/h 84% 0 mm 0 W/m2
02:49 17 °C 14.3 °C 1011.4 hPa WSW 9.5 km/h 20.9 km/h 84% 0 mm 0 W/m2
02:54 16.9 °C 14.2 °C 1011.7 hPa WNW 6.8 km/h 9.7 km/h 84% 0 mm 0 W/m2
02:59 16.9 °C 14.2 °C 1011.7 hPa WSW 5.1 km/h 11.3 km/h 84% 0 mm 0 W/m2
03:04 16.9 °C 14.2 °C 1011.4 hPa SW 5.8 km/h 14.5 km/h 84% 0 mm 0 W/m2
03:09 16.9 °C 14.3 °C 1011.4 hPa SW 11.4 km/h 17.7 km/h 84.4% 0 mm 0 W/m2
03:14 16.9 °C 14.4 °C 1011.4 hPa SW 7.2 km/h 17.7 km/h 85% 0 mm 0 W/m2
03:19 16.9 °C 14.4 °C 1011.1 hPa WSW 10.5 km/h 16.1 km/h 85% 0 mm 0 W/m2
03:24 16.9 °C 14.4 °C 1011.1 hPa WSW 9 km/h 17.7 km/h 85% 0 mm 0 W/m2
03:29 16.9 °C 14.4 °C 1011.4 hPa West 6.8 km/h 22.5 km/h 85% 0 mm 0 W/m2
03:34 16.9 °C 14.4 °C 1011.4 hPa WSW 5.1 km/h 22.5 km/h 85% 0 mm 0 W/m2
03:39 16.8 °C 14.3 °C 1011.4 hPa West 6.6 km/h 9.7 km/h 85% 0 mm 0 W/m2
03:44 16.8 °C 14.4 °C 1011.4 hPa West 4.3 km/h 11.3 km/h 85.8% 0 mm 0 W/m2
03:49 16.8 °C 14.4 °C 1011.4 hPa West 8 km/h 14.5 km/h 86% 0 mm 0 W/m2
03:54 16.8 °C 14.4 °C 1011.1 hPa WSW 7.1 km/h 14.5 km/h 86% 0 mm 0 W/m2
03:59 16.8 °C 14.4 °C 1011.1 hPa WSW 9 km/h 14.5 km/h 86% 0 mm 0 W/m2
04:04 16.8 °C 14.4 °C 1011.1 hPa WSW 7.6 km/h 14.5 km/h 86% 0 mm 0 W/m2
04:09 16.8 °C 14.4 °C 1011.1 hPa SW 6 km/h 11.3 km/h 86% 0 mm 0 W/m2
04:14 16.8 °C 14.6 °C 1011.1 hPa SW 10.9 km/h 19.3 km/h 86.8% 0 mm 0 W/m2
04:19 16.9 °C 14.7 °C 1011.1 hPa WSW 5.3 km/h 14.5 km/h 87% 0 mm 0 W/m2
04:24 16.8 °C 14.7 °C 1011.1 hPa WSW 8 km/h 14.5 km/h 87% 0 mm 0 W/m2
04:29 16.8 °C 14.7 °C 1011.1 hPa WSW 8.5 km/h 19.3 km/h 87% 0 mm 0 W/m2
04:34 16.8 °C 14.6 °C 1011.1 hPa WSW 5.1 km/h 12.9 km/h 87% 0 mm 0 W/m2
04:39 16.8 °C 14.6 °C 1011.1 hPa SW 6.4 km/h 14.5 km/h 87% 0 mm 0 W/m2
04:44 16.8 °C 14.6 °C 1011.1 hPa SW 6.8 km/h 14.5 km/h 87% 0 mm 0 W/m2
04:49 16.8 °C 14.7 °C 1011.1 hPa SSW 11.6 km/h 22.5 km/h 87.8% 0 mm 0 W/m2
04:54 16.8 °C 14.8 °C 1011.1 hPa SSW 8.7 km/h 20.9 km/h 88% 0 mm 0 W/m2
04:59 16.8 °C 14.8 °C 1011.1 hPa SW 9 km/h 19.3 km/h 88% 0 mm 0 W/m2
05:04 16.8 °C 14.8 °C 1011.1 hPa SW 9.7 km/h 19.3 km/h 88% 0 mm 0 W/m2
05:09 16.8 °C 14.8 °C 1011.1 hPa SW 7.1 km/h 17.7 km/h 88% 0 mm 0 W/m2
05:14 16.8 °C 14.8 °C 1011.1 hPa WSW 5.6 km/h 16.1 km/h 88% 0 mm 0 W/m2
05:19 16.7 °C 14.7 °C 1011.1 hPa West 6.3 km/h 14.5 km/h 88% 0 mm 0 W/m2
05:24 16.7 °C 14.8 °C 1011.1 hPa SW 7.7 km/h 14.5 km/h 88.6% 0 mm 0 W/m2
05:29 16.7 °C 14.9 °C 1011.1 hPa SW 4.8 km/h 11.3 km/h 89% 0 mm 0 W/m2
05:34 16.7 °C 14.9 °C 1011.1 hPa WSW 5.1 km/h 11.3 km/h 89% 0 mm 0 W/m2
05:39 16.7 °C 14.9 °C 1011.1 hPa West 5.1 km/h 11.3 km/h 89% 0 mm 0 W/m2
05:44 16.7 °C 14.8 °C 1011.1 hPa WSW 7.7 km/h 12.9 km/h 89% 0 mm 0 W/m2
05:49 16.6 °C 14.8 °C 1011.1 hPa WSW 5.6 km/h 11.3 km/h 89% 0 mm 0 W/m2
05:54 16.6 °C 14.9 °C 1011.1 hPa SW 4 km/h 9.7 km/h 89.8% 0 mm 0 W/m2
05:59 16.6 °C 15 °C 1011.1 hPa WSW 3.4 km/h 9.7 km/h 90% 0 mm 0 W/m2
06:04 16.6 °C 15 °C 1011.1 hPa SW 7.1 km/h 14.5 km/h 90% 0 mm 5 W/m2
06:09 16.6 °C 15 °C 1011.1 hPa WSW 8.4 km/h 16.1 km/h 90% 0 mm 5 W/m2
06:14 16.6 °C 14.9 °C 1011.1 hPa SW 6.6 km/h 12.9 km/h 90% 0 mm 5 W/m2
06:19 16.5 °C 14.9 °C 1011.1 hPa WSW 6.4 km/h 12.9 km/h 90% 0 mm 7 W/m2
06:24 16.6 °C 15 °C 1011.1 hPa WSW 10.8 km/h 16.1 km/h 90% 0 mm 12 W/m2
06:29 16.6 °C 15 °C 1011.1 hPa SW 9 km/h 17.7 km/h 90% 0 mm 11 W/m2
06:34 16.6 °C 15 °C 1011.1 hPa SW 6 km/h 17.7 km/h 90% 0 mm 14 W/m2
06:39 16.6 °C 15 °C 1011.1 hPa SW 6.4 km/h 16.1 km/h 90% 0 mm 16 W/m2
06:44 16.7 °C 15.1 °C 1011.1 hPa SSW 10 km/h 17.7 km/h 90% 0 mm 21 W/m2
06:49 16.7 °C 15.1 °C 1011.1 hPa SW 7.7 km/h 14.5 km/h 90% 0 mm 23 W/m2
06:54 16.7 °C 15.1 °C 1011.1 hPa SW 7.4 km/h 16.1 km/h 90% 0 mm 19 W/m2
06:59 16.7 °C 15.1 °C 1011.1 hPa SW 5.1 km/h 14.5 km/h 90% 0 mm 21 W/m2
07:04 16.7 °C 15.1 °C 1011.1 hPa SW 7.2 km/h 14.5 km/h 90% 0 mm 23 W/m2
07:09 16.7 °C 15.1 °C 1011.1 hPa SW 7.2 km/h 14.5 km/h 90% 0 mm 51 W/m2
07:14 16.8 °C 15.1 °C 1011.1 hPa SSW 3.2 km/h 9.7 km/h 90% 0 mm 65 W/m2
07:19 16.8 °C 15.1 °C 1011.1 hPa SW 3.4 km/h 8 km/h 90% 0 mm 56 W/m2
07:24 16.9 °C 15.2 °C 1011.1 hPa South 5.6 km/h 11.3 km/h 90% 0 mm 51 W/m2
07:29 16.9 °C 15.2 °C 1011.1 hPa SW 5 km/h 9.7 km/h 90% 0 mm 53 W/m2
07:34 16.9 °C 15.2 °C 1011.1 hPa SSW 6 km/h 9.7 km/h 90% 0 mm 46 W/m2
07:39 17 °C 15.3 °C 1011.1 hPa SSW 5.8 km/h 11.3 km/h 90% 0 mm 21 W/m2
07:44 17 °C 15.3 °C 1011.1 hPa SW 5.1 km/h 11.3 km/h 90% 0 mm 35 W/m2
07:48 17.1 °C 15.3 °C 1011.1 hPa SW 7.7 km/h 12.9 km/h 89.8% 0 mm 40 W/m2
07:54 17.1 °C 15.3 °C 1011.1 hPa SSW 8.4 km/h 17.7 km/h 89% 0 mm 30 W/m2
07:59 17.1 °C 15.3 °C 1011.1 hPa SW 4.2 km/h 17.7 km/h 89% 0 mm 49 W/m2
08:04 17.1 °C 15.3 °C 1011.1 hPa SW 7.2 km/h 11.3 km/h 89% 0 mm 53 W/m2
08:09 17.2 °C 15.4 °C 1011.1 hPa SSW 8.7 km/h 14.5 km/h 89% 0 mm 100 W/m2
08:14 17.2 °C 15.4 °C 1011.1 hPa SSW 8.2 km/h 16.1 km/h 89% 0 mm 123 W/m2
08:19 17.3 °C 15.4 °C 1011.1 hPa SSW 9.5 km/h 16.1 km/h 88.4% 0 mm 132 W/m2
08:24 17.3 °C 15.5 °C 1011.1 hPa SSW 7.4 km/h 22.5 km/h 88.8% 0 mm 162 W/m2
08:29 17.4 °C 15.4 °C 1011.1 hPa South 7.1 km/h 22.5 km/h 88% 0 mm 165 W/m2
08:34 17.4 °C 15.4 °C 1011.1 hPa South 11.9 km/h 20.9 km/h 88% 0 mm 176 W/m2
08:39 17.4 °C 15.4 °C 1011.4 hPa South 9.8 km/h 20.9 km/h 88% 0 mm 107 W/m2
08:44 17.4 °C 15.4 °C 1011.4 hPa SSW 5.1 km/h 14.5 km/h 88% 0 mm 109 W/m2
08:49 17.4 °C 15.4 °C 1011.4 hPa SSW 6.9 km/h 14.5 km/h 88% 0 mm 141 W/m2
08:54 17.4 °C 15.4 °C 1011.1 hPa SSW 9 km/h 16.1 km/h 88% 0 mm 192 W/m2
08:59 17.6 °C 15.6 °C 1011.4 hPa South 8.4 km/h 12.9 km/h 88% 0 mm 179 W/m2
09:04 17.6 °C 15.6 °C 1011.4 hPa South 5.8 km/h 12.9 km/h 88% 0 mm 74 W/m2
09:09 17.6 °C 15.6 °C 1011.4 hPa South 6.8 km/h 17.7 km/h 88% 0 mm 88 W/m2
09:14 17.5 °C 15.5 °C 1011.4 hPa South 8.4 km/h 16.1 km/h 88% 0 mm 69 W/m2
09:19 17.4 °C 15.4 °C 1011.4 hPa South 5.5 km/h 14.5 km/h 88% 0 mm 74 W/m2
09:24 17.4 °C 15.4 °C 1011.4 hPa South 4.7 km/h 9.7 km/h 88.2% 0 mm 70 W/m2
09:29 17.3 °C 15.6 °C 1011.4 hPa South 5.3 km/h 14.5 km/h 89% 0 mm 74 W/m2
09:34 17.4 °C 15.6 °C 1011.4 hPa SW 3.5 km/h 9.7 km/h 89% 0 mm 91 W/m2
09:39 17.4 °C 15.6 °C 1011.4 hPa SSW 6.6 km/h 11.3 km/h 89% 0 mm 104 W/m2
09:44 17.4 °C 15.6 °C 1011.4 hPa SSW 6.9 km/h 17.7 km/h 89% 0 mm 104 W/m2
09:49 17.4 °C 15.6 °C 1011.4 hPa SW 9.3 km/h 17.7 km/h 89% 0 mm 93 W/m2
09:54 17.4 °C 15.7 °C 1011.4 hPa SSW 10.5 km/h 16.1 km/h 89% 0 mm 132 W/m2
09:59 17.6 °C 15.7 °C 1011.1 hPa SW 4.7 km/h 12.9 km/h 88.8% 0 mm 202 W/m2
10:04 17.7 °C 15.7 °C 1011.1 hPa SSW 5.6 km/h 12.9 km/h 88% 0 mm 209 W/m2
10:09 17.7 °C 15.7 °C 1011.1 hPa SSW 8.7 km/h 19.3 km/h 88% 0 mm 165 W/m2
10:14 17.7 °C 15.7 °C 1011.1 hPa SW 6.9 km/h 19.3 km/h 88% 0 mm 127 W/m2
10:19 17.7 °C 15.7 °C 1011.1 hPa SSW 7.4 km/h 14.5 km/h 88% 0 mm 134 W/m2
10:24 17.7 °C 15.7 °C 1011.1 hPa SSW 9.3 km/h 20.9 km/h 88% 0 mm 135 W/m2
10:29 17.8 °C 15.8 °C 1011.1 hPa SSW 8.7 km/h 22.5 km/h 88% 0 mm 190 W/m2
10:34 17.8 °C 15.7 °C 1011.1 hPa SSW 11.4 km/h 19.3 km/h 87.8% 0 mm 176 W/m2
10:39 17.8 °C 15.7 °C 1011.1 hPa SW 8.4 km/h 20.9 km/h 87.4% 0 mm 105 W/m2
10:44 17.7 °C 15.7 °C 1011.1 hPa SSW 8.4 km/h 16.1 km/h 88% 0 mm 86 W/m2
10:49 17.7 °C 15.7 °C 1011.1 hPa SW 5.1 km/h 12.9 km/h 88% 0 mm 83 W/m2
10:54 17.8 °C 15.8 °C 1011.1 hPa SSW 5.6 km/h 11.3 km/h 88% 0 mm 127 W/m2
10:59 17.7 °C 15.7 °C 1011.1 hPa SW 7.4 km/h 16.1 km/h 88% 0 mm 287 W/m2
11:04 17.8 °C 15.8 °C 1011.1 hPa SSW 9.2 km/h 12.9 km/h 88% 0 mm 232 W/m2
11:09 17.8 °C 15.8 °C 1011.1 hPa South 9 km/h 25.7 km/h 88% 0 mm 220 W/m2
11:14 17.8 °C 15.8 °C 1011.1 hPa SW 8.4 km/h 16.1 km/h 87.8% 0 mm 141 W/m2
11:19 17.9 °C 15.7 °C 1011.1 hPa SW 5.6 km/h 14.5 km/h 87% 0 mm 258 W/m2
11:24 18.1 °C 15.9 °C 1011.1 hPa South 8.7 km/h 19.3 km/h 87% 0 mm 230 W/m2
11:29 18.1 °C 15.9 °C 1011.4 hPa SW 10.8 km/h 24.1 km/h 87% 0 mm 343 W/m2
11:34 18.2 °C 15.9 °C 1011.4 hPa SW 15.4 km/h 25.7 km/h 87% 0 mm 343 W/m2
11:39 18.1 °C 15.8 °C 1011.4 hPa South 9 km/h 25.7 km/h 86.6% 0 mm 301 W/m2
11:43 18.1 °C 15.9 °C 1011.4 hPa South 11.6 km/h 24.1 km/h 87% 0 mm 183 W/m2
11:49 17.9 °C 15.6 °C 1011.4 hPa SSW 9.3 km/h 24.1 km/h 86.4% 0 mm 190 W/m2
11:54 17.8 °C 15.6 °C 1011.4 hPa WSW 10.3 km/h 17.7 km/h 87% 0 mm 97 W/m2
11:59 17.7 °C 15.6 °C 1011.4 hPa SSW 6 km/h 16.1 km/h 87.2% 0 mm 322 W/m2
12:04 17.7 °C 15.7 °C 1011.4 hPa SSW 7.4 km/h 12.9 km/h 88% 0 mm 376 W/m2
12:09 17.6 °C 15.6 °C 1011.1 hPa South 10.1 km/h 17.7 km/h 88% 0 mm 178 W/m2
12:14 17.6 °C 15.6 °C 1011.1 hPa South 8.9 km/h 17.7 km/h 88% 0 mm 236 W/m2
12:19 17.8 °C 15.8 °C 1011.1 hPa SSW 7.7 km/h 17.7 km/h 88% 0 mm 396 W/m2
12:24 18.1 °C 16.1 °C 1011.1 hPa SSW 6.9 km/h 16.1 km/h 87.8% 0 mm 396 W/m2
12:29 18.2 °C 16 °C 1011.1 hPa SSW 10.8 km/h 20.9 km/h 87% 0 mm 253 W/m2
12:34 18.2 °C 15.8 °C 1011.1 hPa SSW 7.6 km/h 20.9 km/h 86% 0 mm 243 W/m2
12:39 18.2 °C 15.7 °C 1011.1 hPa SSW 11.3 km/h 24.1 km/h 85.2% 0 mm 109 W/m2
12:44 18.2 °C 15.6 °C 1011.1 hPa SSW 13.2 km/h 24.1 km/h 85% 0 mm 146 W/m2
12:49 18.2 °C 15.6 °C 1011.1 hPa SSW 10.9 km/h 24.1 km/h 85% 0 mm 243 W/m2
12:54 18.2 °C 15.6 °C 1011.1 hPa South 10 km/h 24.1 km/h 85% 0 mm 202 W/m2
12:58 18.1 °C 15.6 °C 1011.1 hPa SSW 9.2 km/h 22.5 km/h 85.5% 0 mm 221 W/m2
13:04 18.1 °C 15.7 °C 1011.1 hPa SSW 9.7 km/h 22.5 km/h 85.8% 0 mm 302 W/m2
13:09 18.2 °C 15.7 °C 1011.1 hPa South 12.9 km/h 24.1 km/h 85.4% 0 mm 330 W/m2
13:14 18.3 °C 15.7 °C 1011.4 hPa SSW 12.2 km/h 24.1 km/h 85% 0 mm 406 W/m2
13:19 18.4 °C 15.7 °C 1011.4 hPa SW 16.6 km/h 27.4 km/h 84.4% 0 mm 336 W/m2
13:24 18.4 °C 15.7 °C 1011.4 hPa SW 18 km/h 33.8 km/h 83.8% 0 mm 353 W/m2
13:29 18.4 °C 15.5 °C 1011.4 hPa SSW 20.3 km/h 33.8 km/h 83% 0 mm 290 W/m2
13:34 18.4 °C 15.5 °C 1011.4 hPa SW 13.5 km/h 33.8 km/h 83% 0 mm 241 W/m2
13:39 18.5 °C 15.6 °C 1011.4 hPa SW 16.4 km/h 32.2 km/h 83% 0 mm 221 W/m2
13:44 18.4 °C 15.5 °C 1011.1 hPa SSW 12.6 km/h 29 km/h 83% 0 mm 524 W/m2
13:49 18.8 °C 15.8 °C 1011.1 hPa SSW 14.8 km/h 22.5 km/h 83% 0 mm 642 W/m2
13:54 19.2 °C 16 °C 1011.1 hPa South 15.1 km/h 25.7 km/h 81.8% 0 mm 700 W/m2
13:59 19.3 °C 16 °C 1011.1 hPa SSW 13.7 km/h 27.4 km/h 80.5% 0 mm 643 W/m2
14:04 19.4 °C 15.9 °C 1011.1 hPa SSW 14.2 km/h 24.1 km/h 80% 0 mm 473 W/m2
14:09 19.4 °C 15.9 °C 1011.4 hPa South 10.3 km/h 20.9 km/h 80% 0 mm 568 W/m2
14:13 19.4 °C 15.9 °C 1011.4 hPa South 9.7 km/h 24.1 km/h 80% 0 mm 568 W/m2
14:19 19.7 °C 16.2 °C 1011.1 hPa SSW 9.8 km/h 17.7 km/h 80% 0 mm 557 W/m2
14:24 19.8 °C 16 °C 1011.1 hPa SSW 10.6 km/h 19.3 km/h 78.6% 0 mm 631 W/m2
14:29 19.9 °C 15.9 °C 1011.1 hPa SSW 13.2 km/h 20.9 km/h 77.8% 0 mm 503 W/m2
14:34 19.9 °C 15.8 °C 1011.1 hPa SSW 10.9 km/h 27.4 km/h 77% 0 mm 243 W/m2
14:39 19.7 °C 15.8 °C 1011.1 hPa South 8.5 km/h 17.7 km/h 78% 0 mm 109 W/m2
14:44 19.6 °C 15.7 °C 1011.1 hPa South 12.6 km/h 25.7 km/h 78.4% 0 mm 91 W/m2
14:49 19.5 °C 15.8 °C 1011.1 hPa SSW 9.7 km/h 20.9 km/h 79% 0 mm 118 W/m2
14:53 19.6 °C 15.8 °C 1011.4 hPa SW 7.2 km/h 19.3 km/h 79% 0 mm 90 W/m2
14:59 19.4 °C 15.7 °C 1011.4 hPa SSW 10 km/h 19.3 km/h 79% 0 mm 197 W/m2
15:04 19.4 °C 15.8 °C 1011.4 hPa South 11.9 km/h 22.5 km/h 79% 0 mm 413 W/m2
15:09 19.4 °C 15.7 °C 1010.7 hPa South 12.6 km/h 22.5 km/h 79% 0 mm 288 W/m2
15:14 19.7 °C 15.9 °C 1010.7 hPa South 10.3 km/h 20.9 km/h 79% 0 mm 371 W/m2
15:19 19.7 °C 16 °C 1010.7 hPa South 16.1 km/h 35.4 km/h 79% 0 mm 232 W/m2
15:24 19.7 °C 15.9 °C 1010.7 hPa South 10 km/h 35.4 km/h 78.8% 0 mm 237 W/m2
15:28 19.7 °C 15.8 °C 1010.7 hPa SSW 18.2 km/h 30.6 km/h 78.3% 0 mm 274 W/m2
15:34 19.7 °C 15.9 °C 1010.7 hPa SSW 13.5 km/h 29 km/h 78.6% 0 mm 155 W/m2
15:39 19.5 °C 15.8 °C 1010.7 hPa SSW 10.5 km/h 24.1 km/h 79% 0 mm 90 W/m2
15:44 19.6 °C 15.9 °C 1010.7 hPa SW 9.7 km/h 27.4 km/h 79% 0 mm 130 W/m2
15:49 19.6 °C 15.9 °C 1010.7 hPa SW 12.9 km/h 27.4 km/h 79% 0 mm 137 W/m2
15:54 19.6 °C 15.8 °C 1010.7 hPa SSW 14.5 km/h 29 km/h 78.6% 0 mm 213 W/m2
15:59 19.7 °C 15.9 °C 1011.1 hPa SSW 8.7 km/h 24.1 km/h 79% 0 mm 214 W/m2
16:04 19.4 °C 15.8 °C 1011.1 hPa South 13.5 km/h 27.4 km/h 79.2% 0 mm 204 W/m2
16:09 19.3 °C 15.9 °C 1011.1 hPa SSW 10 km/h 24.1 km/h 80.2% 0 mm 279 W/m2
16:14 19.4 °C 16.2 °C 1011.1 hPa SW 2.7 km/h 25.7 km/h 81% 0 mm 218 W/m2
16:19 19.3 °C 16.1 °C 1011.1 hPa SSW 8.5 km/h 24.1 km/h 81% 0 mm 169 W/m2
16:24 19.3 °C 15.9 °C 1011.1 hPa SSW 12.7 km/h 20.9 km/h 81% 0 mm 120 W/m2
16:29 19.3 °C 15.9 °C 1011.1 hPa SW 12.2 km/h 19.3 km/h 80.8% 0 mm 142 W/m2
16:34 19.3 °C 15.8 °C 1011.1 hPa SSW 11.4 km/h 33.8 km/h 80% 0 mm 200 W/m2
16:39 19.3 °C 15.8 °C 1011.1 hPa SW 11.9 km/h 24.1 km/h 80% 0 mm 209 W/m2
16:44 19.5 °C 16 °C 1011.1 hPa SW 14.8 km/h 27.4 km/h 80% 0 mm 360 W/m2
16:49 19.7 °C 15.9 °C 1011.1 hPa SSW 19.6 km/h 35.4 km/h 78.6% 0 mm 366 W/m2
16:54 19.7 °C 15.8 °C 1011.1 hPa SW 15.9 km/h 35.4 km/h 78.2% 0 mm 490 W/m2
16:58 19.8 °C 15.9 °C 1011.1 hPa SW 14.8 km/h 25.7 km/h 78% 0 mm 392 W/m2
17:04 19.7 °C 15.8 °C 1011.1 hPa SSW 16.4 km/h 30.6 km/h 78% 0 mm 207 W/m2
17:09 19.4 °C 15.6 °C 1011.1 hPa SW 16.6 km/h 33.8 km/h 78.2% 0 mm 155 W/m2
17:14 19.5 °C 15.8 °C 1011.1 hPa SW 12.1 km/h 27.4 km/h 79% 0 mm 183 W/m2
17:19 19.5 °C 15.8 °C 1011.1 hPa SW 11.3 km/h 25.7 km/h 79% 0 mm 156 W/m2
17:24 19.5 °C 15.8 °C 1011.1 hPa SSW 12.4 km/h 29 km/h 79% 0 mm 155 W/m2
17:29 19.3 °C 15.8 °C 1011.1 hPa SSW 11.9 km/h 35.4 km/h 80% 0 mm 197 W/m2
17:34 19.3 °C 15.8 °C 1011.1 hPa SSW 10.1 km/h 30.6 km/h 80% 0 mm 144 W/m2
17:39 19.3 °C 15.8 °C 1011.1 hPa SSW 10.6 km/h 17.7 km/h 80% 0 mm 148 W/m2
17:44 19.2 °C 15.9 °C 1011.1 hPa SW 17.4 km/h 30.6 km/h 80.8% 0 mm 192 W/m2
17:49 19.2 °C 15.8 °C 1010.7 hPa SW 12.6 km/h 27.4 km/h 81% 0 mm 193 W/m2
17:54 19.2 °C 16 °C 1010.7 hPa SW 9.7 km/h 25.7 km/h 81.4% 0 mm 185 W/m2
17:59 19.2 °C 16 °C 1011.1 hPa WSW 11.9 km/h 30.6 km/h 81.6% 0 mm 322 W/m2
18:04 19.4 °C 16.2 °C 1011.1 hPa SW 11.4 km/h 24.1 km/h 81% 0 mm 580 W/m2
18:09 19.5 °C 16.1 °C 1011.1 hPa SW 16.1 km/h 27.4 km/h 80.6% 0 mm 373 W/m2
18:14 19.3 °C 16.1 °C 1011.1 hPa SW 13.5 km/h 29 km/h 81% 0 mm 171 W/m2
18:19 19.3 °C 15.9 °C 1011.1 hPa SSW 9.5 km/h 25.7 km/h 81% 0 mm 135 W/m2
18:24 19.2 °C 15.9 °C 1011.1 hPa SSW 7.7 km/h 20.9 km/h 81.2% 0 mm 84 W/m2
18:29 19.2 °C 16.1 °C 1011.1 hPa SSW 11.3 km/h 25.7 km/h 82% 0 mm 74 W/m2
18:34 19.1 °C 16 °C 1011.1 hPa SSW 9.7 km/h 16.1 km/h 82% 0 mm 65 W/m2
18:39 18.9 °C 15.8 °C 1011.1 hPa SSW 15.1 km/h 27.4 km/h 82.2% 0 mm 47 W/m2
18:44 18.9 °C 15.9 °C 1011.4 hPa SSW 6.8 km/h 17.7 km/h 83% 0 mm 33 W/m2
18:49 18.8 °C 15.9 °C 1011.4 hPa South 10.3 km/h 20.9 km/h 83% 0 mm 26 W/m2
18:54 18.8 °C 15.9 °C 1011.4 hPa SSW 10.9 km/h 20.9 km/h 83% 0 mm 23 W/m2
18:59 18.7 °C 15.8 °C 1011.4 hPa SSW 13.5 km/h 24.1 km/h 83.4% 0 mm 23 W/m2
19:04 18.6 °C 15.8 °C 1011.4 hPa SW 9.3 km/h 24.1 km/h 84% 0 mm 18 W/m2
19:09 18.6 °C 15.8 °C 1011.7 hPa SW 10.1 km/h 17.7 km/h 84% 0 mm 18 W/m2
19:14 18.6 °C 15.9 °C 1011.7 hPa SSW 7.2 km/h 16.1 km/h 84.6% 0 mm 18 W/m2
19:19 18.5 °C 15.9 °C 1011.7 hPa SW 10 km/h 17.7 km/h 85% 0 mm 14 W/m2
19:24 18.4 °C 15.8 °C 1011.7 hPa SSW 5.6 km/h 16.1 km/h 85% 0 mm 19 W/m2
19:29 18.4 °C 15.8 °C 1011.7 hPa SSW 6.3 km/h 12.9 km/h 85% 0 mm 18 W/m2
19:34 18.3 °C 15.8 °C 1011.7 hPa SSW 6.3 km/h 11.3 km/h 85.6% 0 mm 16 W/m2
19:39 18.3 °C 15.9 °C 1011.7 hPa SSW 5.3 km/h 11.3 km/h 86% 0 mm 18 W/m2
19:44 18.2 °C 15.8 °C 1011.7 hPa SW 6.4 km/h 11.3 km/h 86% 0 mm 14 W/m2
19:48 18.2 °C 15.9 °C 1011.7 hPa SSW 7.6 km/h 12.9 km/h 86.5% 0 mm 63 W/m2
19:54 18.2 °C 16 °C 1011.7 hPa SW 10.5 km/h 17.7 km/h 87% 0 mm 104 W/m2
19:59 18.2 °C 16 °C 1011.7 hPa SSW 9.3 km/h 14.5 km/h 87% 0 mm 127 W/m2
20:04 18.2 °C 16 °C 1011.7 hPa SSW 8.2 km/h 16.1 km/h 87% 0 mm 100 W/m2
20:09 18.2 °C 16 °C 1011.7 hPa South 11.6 km/h 22.5 km/h 87% 0 mm 69 W/m2
20:14 18.2 °C 16 °C 1011.7 hPa SSW 7.9 km/h 12.9 km/h 87% 0 mm 47 W/m2
20:19 18.2 °C 16 °C 1011.7 hPa SSW 9.7 km/h 16.1 km/h 87% 0 mm 19 W/m2
20:24 18.1 °C 15.9 °C 1011.7 hPa SSW 7.9 km/h 16.1 km/h 87% 0 mm 11 W/m2
20:29 18.1 °C 15.9 °C 1011.7 hPa SSW 8 km/h 17.7 km/h 87% 0 mm 14 W/m2
20:34 18 °C 15.8 °C 1011.7 hPa South 6 km/h 14.5 km/h 87% 0 mm 14 W/m2
20:39 18 °C 15.8 °C 1011.7 hPa SSW 6 km/h 16.1 km/h 87% 0 mm 7 W/m2
20:44 18 °C 15.9 °C 1012.1 hPa South 6.4 km/h 16.1 km/h 87.4% 0 mm 0 W/m2
20:49 18 °C 16 °C 1012.1 hPa SSW 13.8 km/h 20.9 km/h 88% 0 mm 0 W/m2
20:54 18 °C 16 °C 1012.1 hPa WSW 10.6 km/h 19.3 km/h 88% 0 mm 0 W/m2
20:59 18 °C 16 °C 1012.1 hPa SSW 6.8 km/h 12.9 km/h 88% 0 mm 0 W/m2
21:04 17.9 °C 15.9 °C 1012.1 hPa SSW 7.6 km/h 19.3 km/h 88% 0 mm 0 W/m2
21:08 17.9 °C 15.9 °C 1012.1 hPa SSW 9.7 km/h 16.1 km/h 88% 0 mm 0 W/m2
21:14 17.9 °C 15.9 °C 1012.1 hPa SW 5.6 km/h 19.3 km/h 88% 0 mm 0 W/m2
21:19 17.9 °C 15.9 °C 1012.1 hPa SW 8.5 km/h 19.3 km/h 88% 0 mm 0 W/m2
21:24 17.8 °C 15.8 °C 1012.1 hPa SW 9.7 km/h 17.7 km/h 88% 0 mm 0 W/m2
21:29 17.8 °C 15.8 °C 1012.1 hPa SW 11.3 km/h 19.3 km/h 88.2% 0 mm 0 W/m2
21:34 17.8 °C 15.9 °C 1012.4 hPa SSW 7.1 km/h 17.7 km/h 88.8% 0 mm 0 W/m2
21:39 17.7 °C 15.8 °C 1012.4 hPa SW 8.5 km/h 16.1 km/h 88.6% 0 mm 0 W/m2
21:44 17.7 °C 15.9 °C 1012.4 hPa SSW 10.8 km/h 17.7 km/h 89% 0 mm 0 W/m2
21:49 17.7 °C 15.9 °C 1012.4 hPa WSW 7.7 km/h 14.5 km/h 89% 0 mm 0 W/m2
21:54 17.7 °C 15.9 °C 1012.4 hPa SW 9 km/h 19.3 km/h 89% 0 mm 0 W/m2
21:59 17.7 °C 15.9 °C 1012.4 hPa SW 9.8 km/h 16.1 km/h 89% 0 mm 0 W/m2
22:04 17.7 °C 15.9 °C 1012.8 hPa SW 7.2 km/h 14.5 km/h 89% 0 mm 0 W/m2
22:09 17.7 °C 15.9 °C 1012.8 hPa SW 5.8 km/h 11.3 km/h 89% 0 mm 0 W/m2
22:14 17.7 °C 15.9 °C 1012.4 hPa SW 5.6 km/h 14.5 km/h 89% 0 mm 0 W/m2
22:19 17.7 °C 15.9 °C 1012.8 hPa SSW 7.6 km/h 14.5 km/h 89% 0 mm 0 W/m2
22:24 17.7 °C 15.9 °C 1012.8 hPa WSW 4.8 km/h 11.3 km/h 89% 0 mm 0 W/m2
22:29 17.7 °C 15.9 °C 1012.8 hPa WSW 8 km/h 14.5 km/h 89% 0 mm 0 W/m2
22:34 17.7 °C 15.9 °C 1012.8 hPa SW 6.6 km/h 12.9 km/h 89% 0 mm 0 W/m2
22:39 17.7 °C 15.9 °C 1012.8 hPa SW 5.5 km/h 12.9 km/h 89% 0 mm 0 W/m2
22:44 17.7 °C 15.9 °C 1012.8 hPa SSW 7.2 km/h 16.1 km/h 89% 0 mm 0 W/m2
22:49 17.8 °C 16 °C 1012.8 hPa SW 7.7 km/h 11.3 km/h 89% 0 mm 0 W/m2
22:54 17.8 °C 16 °C 1012.8 hPa SW 6.8 km/h 12.9 km/h 89% 0 mm 0 W/m2
22:59 17.8 °C 16 °C 1012.8 hPa SW 9.7 km/h 16.1 km/h 89% 0 mm 0 W/m2
23:04 17.8 °C 16 °C 1012.8 hPa WSW 7.6 km/h 12.9 km/h 89% 0 mm 0 W/m2
23:09 17.8 °C 16 °C 1012.8 hPa SSW 5.1 km/h 14.5 km/h 89% 0 mm 0 W/m2
23:14 17.8 °C 16 °C 1012.8 hPa WSW 3.9 km/h 9.7 km/h 89% 0 mm 0 W/m2
23:19 17.8 °C 16 °C 1012.8 hPa SW 7.9 km/h 12.9 km/h 89% 0 mm 0 W/m2
23:24 17.8 °C 16 °C 1012.8 hPa SW 5.1 km/h 9.7 km/h 89% 0 mm 0 W/m2
23:29 17.8 °C 16 °C 1012.8 hPa West 4.5 km/h 9.7 km/h 89% 0 mm 0 W/m2
23:34 17.8 °C 16 °C 1013.1 hPa West 3.9 km/h 9.7 km/h 89% 0 mm 0 W/m2
23:39 17.8 °C 16 °C 1013.1 hPa West 2.9 km/h 8 km/h 89% 0 mm 0 W/m2
23:44 17.8 °C 16 °C 1013.1 hPa West 0.8 km/h 4.8 km/h 89% 0 mm 0 W/m2
23:49 17.8 °C 16 °C 1013.1 hPa West 2.1 km/h 4.8 km/h 89% 0 mm 0 W/m2
23:54 17.8 °C 15.9 °C 1013.1 hPa West 1.1 km/h 4.8 km/h 89% 0 mm 0 W/m2
23:59 17.8 °C 16 °C 1013.1 hPa West 1 km/h 4.8 km/h 89% 0 mm 0 W/m2
Bath Spa Weather
Compliments of Weather Underground - 2 mb